Time;durP1;ratioP1;P1;durP2;ratioP2;P2;SDS_P1;SDS_P2;PMS_P1;PMS_P2;Temp;Humidity;BMP_temperature;BMP_pressure;BME280_temperature;BME280_humidity;BME280_pressure;Samples;Min_cycle;Max_cycle;Signal;HPM_P1;HPM_P2
2022/11/14 00:00:28;;;;;;;12.80;7.08;;;;;;;8.60;100.00;149818.95;1706176;82;21090;-61
2022/11/14 00:03:15;;;;;;;10.48;6.47;;;;;;;8.61;100.00;149820.22;1703641;83;21401;-63
2022/11/14 00:06:06;;;;;;;10.45;6.90;;;;;;;8.64;100.00;149826.72;1713262;82;21437;-61
2022/11/14 00:08:51;;;;;;;10.23;6.65;;;;;;;8.67;100.00;149835.81;1718782;82;21114;-61
2022/11/14 00:11:37;;;;;;;10.15;6.58;;;;;;;8.69;100.00;149839.67;1711565;82;21976;-58
2022/11/14 00:14:23;;;;;;;9.73;6.25;;;;;;;8.70;100.00;149843.58;1701229;83;21507;-58
2022/11/14 00:17:09;;;;;;;11.00;7.20;;;;;;;8.72;100.00;149847.44;1702140;82;21456;-59
2022/11/14 00:19:56;;;;;;;11.43;7.40;;;;;;;8.73;100.00;149850.03;1705530;82;21055;-58
2022/11/14 00:22:41;;;;;;;12.13;6.30;;;;;;;8.73;100.00;149850.03;1702827;83;21051;-58
2022/11/14 00:25:28;;;;;;;9.75;6.95;;;;;;;8.72;100.00;149847.44;1706864;82;21058;-59
2022/11/14 00:28:14;;;;;;;8.38;5.58;;;;;;;8.73;100.00;149850.03;1707219;82;21089;-59
2022/11/14 00:30:59;;;;;;;;;;;;;;;8.74;100.00;149853.94;1704722;83;21509;-59
2022/11/14 00:33:45;;;;;;;9.70;6.00;;;;;;;8.79;100.00;149865.61;1707072;82;20489;-58
2022/11/14 00:36:30;;;;;;;11.08;6.45;;;;;;;8.80;100.00;149868.20;1716197;82;21791;-59
2022/11/14 00:39:16;;;;;;;8.95;5.53;;;;;;;8.81;100.00;149870.80;1713743;82;21031;-59
2022/11/14 00:42:01;;;;;;;8.88;5.30;;;;;;;8.80;100.00;149868.20;1705259;82;21564;-58
2022/11/14 00:44:47;;;;;;;6.67;4.30;;;;;;;8.83;100.00;149875.97;1704639;82;21059;-60
2022/11/14 00:47:33;;;;;;;9.78;5.65;;;;;;;8.85;100.00;149881.16;1706956;82;21067;-60
2022/11/14 00:50:24;;;;;;;9.05;5.22;;;;;;;8.87;100.00;149885.06;1707067;82;21050;-59
2022/11/14 00:53:10;;;;;;;7.37;5.00;;;;;;;8.87;100.00;149886.33;1703695;82;21136;-59
2022/11/14 00:55:55;;;;;;;7.97;4.60;;;;;;;8.88;100.00;149887.66;1706281;82;22156;-59
2022/11/14 00:58:40;;;;;;;7.45;4.95;;;;;;;8.88;100.00;149887.66;1718091;82;21051;-59
2022/11/14 01:01:25;;;;;;;8.68;4.47;;;;;;;8.88;100.00;149887.66;1730017;82;21533;-60
2022/11/14 01:04:11;;;;;;;10.10;4.58;;;;;;;8.88;100.00;149888.92;1722779;82;21034;-60
2022/11/14 01:06:56;;;;;;;7.22;4.62;;;;;;;8.89;100.00;149891.50;1718336;81;21214;-59
2022/11/14 01:09:42;;;;;;;6.58;4.75;;;;;;;8.88;100.00;149888.92;1723035;82;21587;-60
2022/11/14 01:12:27;;;;;;;8.90;4.72;;;;;;;8.90;100.00;149892.83;1707836;82;21548;-58
2022/11/14 01:15:12;;;;;;;;;;;;;;;8.90;100.00;149892.83;1729191;82;21067;-58
2022/11/14 01:17:59;;;;;;;10.18;5.12;;;;;;;8.93;100.00;149899.28;1713983;82;20211;-58
2022/11/14 01:20:45;;;;;;;;;;;;;;;8.91;100.00;149894.09;1707630;82;21154;-57
2022/11/14 01:23:30;;;;;;;10.28;4.78;;;;;;;8.91;100.00;149894.09;1704646;82;27010;-58
2022/11/14 01:26:15;;;;;;;;;;;;;;;8.89;100.00;149891.50;1709715;83;21074;-59
2022/11/14 01:29:00;;;;;;;14.83;5.03;;;;;;;8.88;100.00;149888.92;1707038;82;20146;-59
2022/11/14 01:31:46;;;;;;;10.53;4.58;;;;;;;8.88;100.00;149888.92;1707057;84;21027;-59
2022/11/14 01:34:32;;;;;;;10.55;4.42;;;;;;;8.88;100.00;149888.92;1703112;83;21136;-60
2022/11/14 01:37:17;;;;;;;12.70;5.08;;;;;;;8.88;100.00;149887.66;1714821;82;21405;-58
2022/11/14 01:40:06;;;;;;;10.45;4.80;;;;;;;8.88;100.00;149887.66;1726108;82;21180;-59
2022/11/14 01:43:19;;;;;;;9.08;4.92;;;;;;;8.88;100.00;149887.66;1729753;82;20996;-59
2022/11/14 01:46:17;;;;;;;7.10;4.60;;;;;;;8.87;100.00;149886.33;1725992;82;21031;-60
2022/11/14 01:49:21;;;;;;;7.85;4.45;;;;;;;8.86;100.00;149883.73;1717594;82;21402;-60
2022/11/14 01:52:12;;;;;;;10.53;4.97;;;;;;;8.86;100.00;149883.73;1698415;82;21544;-59
2022/11/14 01:55:02;;;;;;;12.70;4.97;;;;;;;8.86;100.00;149882.47;1729878;82;21496;-59
2022/11/14 01:57:48;;;;;;;11.48;4.50;;;;;;;8.86;100.00;149883.73;1727436;81;21499;-59
2022/11/14 02:00:33;;;;;;;7.85;4.47;;;;;;;8.86;100.00;149883.73;1711798;82;21052;-58
2022/11/14 02:03:18;;;;;;;8.90;4.30;;;;;;;8.86;100.00;149883.73;1704218;82;27922;-60
2022/11/14 02:06:05;;;;;;;13.58;4.45;;;;;;;8.86;100.00;149882.47;1703761;82;28053;-59
2022/11/14 02:08:50;;;;;;;7.35;4.65;;;;;;;8.86;100.00;149882.47;1725835;81;21060;-60
2022/11/14 02:11:40;;;;;;;8.13;4.62;;;;;;;8.85;100.00;149881.16;1703276;82;21513;-60
2022/11/14 02:14:26;;;;;;;8.28;5.00;;;;;;;8.84;100.00;149878.56;1705648;82;21099;-60
2022/11/14 02:17:12;;;;;;;8.80;5.42;;;;;;;8.84;100.00;149877.23;1713504;82;21147;-59
2022/11/14 02:20:16;;;;;;;10.25;6.22;;;;;;;8.80;100.00;149868.20;1723470;82;21076;-60
2022/11/14 02:23:01;;;;;;;10.08;5.37;;;;;;;8.75;100.00;149855.25;1714859;83;21099;-59
2022/11/14 02:25:48;;;;;;;9.03;5.33;;;;;;;8.72;100.00;149847.44;1714798;83;21107;-61
2022/11/14 02:28:35;;;;;;;8.38;5.42;;;;;;;8.67;100.00;149835.81;1714768;83;20980;-59
2022/11/14 02:31:20;;;;;;;;;;;;;;;8.66;100.00;149831.91;1727720;82;21257;-58
2022/11/14 02:34:07;;;;;;;9.98;5.33;;;;;;;8.65;100.00;149829.31;1672209;84;20177;-59
2022/11/14 02:36:52;;;;;;;10.28;5.53;;;;;;;8.65;100.00;149829.31;1654649;85;21022;-59
2022/11/14 02:39:39;;;;;;;11.75;6.03;;;;;;;8.61;100.00;149820.22;1618150;86;21106;-58
2022/11/14 02:42:25;;;;;;;11.40;6.33;;;;;;;8.59;100.00;149816.36;1627139;86;21136;-59
2022/11/14 02:45:10;;;;;;;10.28;5.83;;;;;;;8.57;100.00;149811.19;1631159;87;21259;-58
2022/11/14 02:47:55;;;;;;;;;;;;;;;8.55;100.00;149806.00;1622148;86;21428;-59
2022/11/14 02:50:42;;;;;;;10.65;6.15;;;;;;;8.54;100.00;149802.09;1618080;86;32725;-62
2022/11/14 02:53:27;;;;;;;10.72;6.08;;;;;;;8.53;100.00;149800.83;1628110;86;21506;-58
2022/11/14 02:56:13;;;;;;;10.63;6.42;;;;;;;8.51;100.00;149795.66;1625271;86;21178;-59
2022/11/14 02:58:58;;;;;;;12.40;6.90;;;;;;;8.50;100.00;149791.75;1667679;83;21233;-58
2022/11/14 03:01:44;;;;;;;9.73;6.30;;;;;;;8.49;100.00;149790.38;1703742;82;21238;-58
2022/11/14 03:04:30;;;;;;;11.95;6.50;;;;;;;8.50;100.00;149791.75;1706794;83;21472;-58
2022/11/14 03:07:15;;;;;;;;;;;;;;;8.50;100.00;149791.75;1707996;82;21115;-59
2022/11/14 03:10:01;;;;;;;11.48;6.58;;;;;;;8.50;100.00;149793.02;1711095;82;20211;-59
2022/11/14 03:12:46;;;;;;;10.30;5.90;;;;;;;8.49;100.00;149789.11;1721282;82;21126;-60
2022/11/14 03:15:31;;;;;;;14.98;6.40;;;;;;;8.48;100.00;149787.78;1706250;82;21054;-59
2022/11/14 03:18:16;;;;;;;10.72;6.58;;;;;;;8.46;100.00;149782.61;1704476;83;21055;-60
2022/11/14 03:21:11;;;;;;;11.35;6.53;;;;;;;8.45;100.00;149781.34;1720626;82;21695;-59
2022/11/14 03:23:56;;;;;;;11.93;6.72;;;;;;;8.44;100.00;149778.75;1730198;82;21457;-59
2022/11/14 03:26:41;;;;;;;;;;;;;;;8.46;100.00;149782.61;1729944;82;22638;-59
2022/11/14 03:29:26;;;;;;;13.80;6.67;;;;;;;8.45;100.00;149780.02;1722784;82;20179;-59
2022/11/14 03:32:12;;;;;;;13.70;6.87;;;;;;;8.46;100.00;149782.61;1713651;82;26583;-59
2022/11/14 03:34:58;;;;;;;12.45;6.65;;;;;;;8.47;100.00;149785.19;1707195;82;21122;-60
2022/11/14 03:37:43;;;;;;;11.28;6.17;;;;;;;8.46;100.00;149782.61;1703261;83;21460;-60
2022/11/14 03:40:30;;;;;;;14.13;6.50;;;;;;;8.46;100.00;149782.61;1702038;83;21638;-58
2022/11/14 03:43:17;;;;;;;10.13;6.40;;;;;;;8.44;100.00;149777.44;1704482;82;21557;-59
2022/11/14 03:46:03;;;;;;;11.22;6.42;;;;;;;8.44;100.00;149777.44;1703207;82;21134;-58
2022/11/14 03:48:48;;;;;;;13.75;6.65;;;;;;;8.45;100.00;149780.02;1704380;82;21189;-58
2022/11/14 03:51:34;;;;;;;10.43;5.78;;;;;;;8.45;100.00;149780.02;1706619;82;21579;-58
2022/11/14 03:54:19;;;;;;;12.58;6.70;;;;;;;8.47;100.00;149785.19;1712087;82;21242;-59
2022/11/14 03:57:05;;;;;;;14.23;6.40;;;;;;;8.46;100.00;149782.61;1711678;82;21106;-58
2022/11/14 03:59:51;;;;;;;10.72;6.42;;;;;;;8.45;100.00;149780.02;1701743;83;21016;-58
2022/11/14 04:02:37;;;;;;;12.43;6.97;;;;;;;8.43;100.00;149774.84;1701926;83;21090;-59
2022/11/14 04:05:23;;;;;;;10.48;6.50;;;;;;;8.42;100.00;149773.56;1702369;82;21038;-58
2022/11/14 04:08:07;;;;;;;;;;;;;;;8.43;100.00;149774.84;1703330;82;21722;-59
2022/11/14 04:10:53;;;;;;;10.98;6.03;;;;;;;8.42;100.00;149772.25;1712249;82;20184;-59
2022/11/14 04:13:39;;;;;;;11.80;6.37;;;;;;;8.41;100.00;149769.66;1710775;82;21090;-59
2022/11/14 04:16:25;;;;;;;;;;;;;;;8.39;100.00;149765.75;1709588;82;21046;-59
2022/11/14 04:19:10;;;;;;;10.37;6.20;;;;;;;8.38;100.00;149763.16;1700375;82;20177;-59
2022/11/14 04:21:55;;;;;;;11.60;6.10;;;;;;;8.36;100.00;149757.98;1705511;82;21508;-59
2022/11/14 04:24:43;;;;;;;10.13;6.30;;;;;;;8.37;100.00;149759.31;1702587;83;21078;-58
2022/11/14 04:27:28;;;;;;;9.98;5.62;;;;;;;8.37;100.00;149759.31;1700585;83;21504;-59
2022/11/14 04:30:13;;;;;;;;;;;;;;;8.36;100.00;149756.72;1708630;82;21079;-59
2022/11/14 04:32:59;;;;;;;11.17;6.13;;;;;;;8.36;100.00;149756.72;1702983;82;20186;-59
2022/11/14 04:35:45;;;;;;;11.60;6.55;;;;;;;8.35;100.00;149754.12;1704051;82;21325;-59
2022/11/14 04:38:30;;;;;;;12.23;6.45;;;;;;;8.35;100.00;149754.12;1702540;82;21616;-60
2022/11/14 04:41:15;;;;;;;10.50;6.75;;;;;;;8.34;100.00;149751.53;1700295;83;22147;-58
2022/11/14 04:44:01;;;;;;;10.78;6.70;;;;;;;8.34;100.00;149751.53;1706432;82;21101;-59
2022/11/14 04:46:47;;;;;;;12.60;6.33;;;;;;;8.33;100.00;149748.95;1707190;82;21055;-59
2022/11/14 04:49:33;;;;;;;12.93;6.03;;;;;;;8.36;100.00;149756.72;1703366;82;21527;-58
2022/11/14 04:52:18;;;;;;;13.50;7.05;;;;;;;8.35;100.00;149754.12;1706982;82;21106;-59
2022/11/14 04:55:04;;;;;;;11.08;6.60;;;;;;;8.35;100.00;149754.12;1704436;82;22043;-59
2022/11/14 04:57:54;;;;;;;10.15;6.42;;;;;;;8.34;100.00;149751.53;1705646;82;21119;-60
2022/11/14 05:00:40;;;;;;;11.93;6.47;;;;;;;8.31;100.00;149746.38;1707028;82;21173;-60
2022/11/14 05:03:27;;;;;;;11.88;6.87;;;;;;;8.30;100.00;149743.78;1701298;83;21406;-59
2022/11/14 05:06:12;;;;;;;13.40;7.12;;;;;;;8.30;100.00;149742.45;1680266;83;21050;-58
2022/11/14 05:08:59;;;;;;;12.28;6.22;;;;;;;8.31;100.00;149745.05;1710925;82;21036;-59
2022/11/14 05:11:44;;;;;;;12.90;6.80;;;;;;;8.31;100.00;149746.38;1719188;82;21047;-59
2022/11/14 05:14:30;;;;;;;;;;;;;;;8.31;100.00;149746.38;1723876;82;21043;-58
2022/11/14 05:17:16;;;;;;;8.68;5.67;;;;;;;8.31;100.00;149745.05;1721262;82;21144;-59
2022/11/14 05:20:01;;;;;;;;;;;;;;;8.30;100.00;149742.45;1708462;82;21125;-58
2022/11/14 05:22:46;;;;;;;12.10;6.78;;;;;;;8.31;100.00;149746.38;1728852;82;20491;-59
2022/11/14 05:25:32;;;;;;;10.58;6.45;;;;;;;8.30;100.00;149742.45;1727322;82;21095;-60
2022/11/14 05:28:18;;;;;;;11.48;5.80;;;;;;;8.30;100.00;149743.78;1716045;83;21011;-59
2022/11/14 05:31:11;;;;;;;12.65;6.58;;;;;;;8.33;100.00;149748.95;1728557;82;21207;-58
2022/11/14 05:33:56;;;;;;;12.07;6.50;;;;;;;8.33;100.00;149748.95;1706009;82;21075;-62
2022/11/14 05:36:41;;;;;;;12.28;6.17;;;;;;;8.31;100.00;149746.38;1703882;82;21091;-58
2022/11/14 05:39:26;;;;;;;10.32;6.08;;;;;;;8.33;100.00;149748.95;1707019;82;21195;-59
2022/11/14 05:42:11;;;;;;;9.93;5.67;;;;;;;8.34;100.00;149752.81;1707069;82;21063;-59
2022/11/14 05:44:56;;;;;;;7.90;5.40;;;;;;;8.36;100.00;149757.98;1723146;82;21493;-59
2022/11/14 05:47:41;;;;;;;9.78;5.50;;;;;;;8.37;100.00;149760.58;1726078;82;23605;-59
2022/11/14 05:50:26;;;;;;;;;;;;;;;8.36;100.00;149756.72;1728696;82;21036;-59
2022/11/14 05:53:12;;;;;;;10.30;5.70;;;;;;;8.35;100.00;149755.41;1729436;82;20176;-60
2022/11/14 05:56:11;;;;;;;11.08;5.87;;;;;;;8.34;100.00;149752.81;1714056;82;27355;-60
2022/11/14 05:58:57;;;;;;;8.85;5.70;;;;;;;8.31;100.00;149746.38;1723660;82;21269;-60
2022/11/14 06:01:42;;;;;;;8.68;5.60;;;;;;;8.28;100.00;149738.55;1724662;82;27057;-58
2022/11/14 06:04:28;;;;;;;10.15;5.50;;;;;;;8.26;100.00;149733.38;1714351;82;21066;-58
2022/11/14 06:07:14;;;;;;;8.60;5.53;;;;;;;8.26;100.00;149733.38;1706689;82;21605;-59
2022/11/14 06:09:59;;;;;;;9.48;5.97;;;;;;;8.27;100.00;149735.97;1710326;82;21584;-60
2022/11/14 06:12:44;;;;;;;9.65;5.60;;;;;;;8.29;100.00;149739.88;1714014;82;21126;-59
2022/11/14 06:15:29;;;;;;;9.25;5.60;;;;;;;8.29;100.00;149741.19;1703223;82;24489;-58
2022/11/14 06:18:15;;;;;;;10.18;5.85;;;;;;;8.29;100.00;149739.88;1704648;83;21546;-59
2022/11/14 06:21:03;;;;;;;8.55;5.60;;;;;;;8.29;100.00;149739.88;1707052;82;21095;-59
2022/11/14 06:23:49;;;;;;;9.45;5.67;;;;;;;8.29;100.00;149741.19;1715118;82;21038;-59
2022/11/14 06:26:34;;;;;;;;;;;;;;;8.33;100.00;149748.95;1708714;82;21102;-59
2022/11/14 06:29:20;;;;;;;10.45;5.78;;;;;;;8.36;100.00;149756.72;1703598;83;20170;-58
2022/11/14 06:32:06;;;;;;;13.05;6.75;;;;;;;8.35;100.00;149754.12;1706674;82;21078;-59
2022/11/14 06:34:51;;;;;;;12.00;6.53;;;;;;;8.35;100.00;149754.12;1706453;82;21054;-59
2022/11/14 06:37:39;;;;;;;11.20;6.47;;;;;;;8.38;100.00;149761.89;1707015;82;21067;-60
2022/11/14 06:40:25;;;;;;;11.93;5.80;;;;;;;8.37;100.00;149759.31;1700213;83;21539;-60
2022/11/14 06:43:12;;;;;;;13.45;6.25;;;;;;;8.38;100.00;149761.89;1701330;82;21027;-61
2022/11/14 06:45:57;;;;;;;10.03;5.92;;;;;;;8.41;100.00;149769.66;1703800;82;21205;-59
2022/11/14 06:48:43;;;;;;;10.80;6.25;;;;;;;8.41;100.00;149769.66;1701225;83;21130;-60
2022/11/14 06:51:29;;;;;;;10.45;6.50;;;;;;;8.41;100.00;149769.66;1702203;82;21064;-62
2022/11/14 06:54:15;;;;;;;12.20;6.67;;;;;;;8.41;100.00;149770.98;1717170;81;21028;-62
2022/11/14 06:57:01;;;;;;;11.57;6.42;;;;;;;8.43;100.00;149774.84;1710044;81;21043;-63
2022/11/14 07:00:01;;;;;;;13.53;6.67;;;;;;;8.47;100.00;149785.19;1714276;82;21724;-63
2022/11/14 07:02:50;;;;;;;14.07;7.42;;;;;;;8.49;100.00;149790.38;1704812;82;21554;-63
2022/11/14 07:05:35;;;;;;;16.23;8.03;;;;;;;8.52;100.00;149798.23;1688029;84;21095;-63
2022/11/14 07:08:20;;;;;;;17.48;8.15;;;;;;;8.54;100.00;149802.09;1660345;85;21644;-62
2022/11/14 07:11:21;;;;;;;18.00;8.43;;;;;;;8.52;100.00;149798.23;1672501;84;21124;-62
2022/11/14 07:14:03;;;;;;;22.22;8.15;;;;;;;8.55;100.00;149806.00;1706748;82;21608;-63
2022/11/14 07:16:50;;;;;;;16.12;8.33;;;;;;;8.56;100.00;149808.59;1726261;82;21078;-63
2022/11/14 07:19:36;;;;;;;16.07;8.28;;;;;;;8.58;100.00;149812.45;1708497;82;21154;-62
2022/11/14 07:22:22;;;;;;;19.20;9.33;;;;;;;8.63;100.00;149825.45;1705276;82;21051;-62
2022/11/14 07:25:08;;;;;;;16.80;8.58;;;;;;;8.68;100.00;149837.08;1706048;82;22042;-62
2022/11/14 07:27:56;;;;;;;18.90;8.23;;;;;;;8.71;100.00;149844.84;1702777;82;21582;-62
2022/11/14 07:30:42;;;;;;;19.32;9.98;;;;;;;8.73;100.00;149850.03;1680202;84;21729;-62
2022/11/14 07:33:28;;;;;;;19.45;8.18;;;;;;;8.75;100.00;149855.25;1672813;84;21085;-62
2022/11/14 07:36:14;;;;;;;20.60;9.33;;;;;;;8.75;100.00;149855.25;1665244;84;23381;-63
2022/11/14 07:38:59;;;;;;;18.20;9.35;;;;;;;8.76;100.00;149857.84;1686828;83;21480;-63
2022/11/14 07:41:45;;;;;;;14.93;8.85;;;;;;;8.77;100.00;149859.11;1676979;83;21086;-62
2022/11/14 07:44:30;;;;;;;17.77;8.70;;;;;;;8.74;100.00;149852.66;1702143;82;21090;-64
2022/11/14 07:47:15;;;;;;;;;;;;;;;8.71;100.00;149844.84;1711399;82;21098;-63
2022/11/14 07:50:01;;;;;;;18.70;9.18;;;;;;;8.73;100.00;149850.03;1703975;82;21150;-62
2022/11/14 07:52:52;;;;;;;20.25;8.80;;;;;;;8.81;100.00;149870.80;1711285;82;21042;-62
2022/11/14 07:55:38;;;;;;;17.65;9.70;;;;;;;8.88;100.00;149888.92;1713800;82;21117;-63
2022/11/14 07:58:23;;;;;;;16.75;9.38;;;;;;;8.95;100.00;149905.78;1700289;82;21141;-63
2022/11/14 08:01:10;;;;;;;22.15;10.05;;;;;;;9.03;100.00;149925.23;1712485;82;21117;-63
2022/11/14 08:03:55;;;;;;;18.20;10.08;;;;;;;9.10;100.00;149943.36;1706954;82;22213;-64
2022/11/14 08:06:41;;;;;;;22.67;10.60;;;;;;;9.20;100.00;149966.72;1706762;82;21521;-63
2022/11/14 08:09:27;;;;;;;21.97;10.75;;;;;;;9.25;100.00;149980.94;1675950;83;21032;-62
2022/11/14 08:12:12;;;;;;;21.27;10.13;;;;;;;9.35;100.00;150005.58;1704017;81;21083;-63
2022/11/14 08:14:59;;;;;;;20.35;10.03;;;;;;;9.43;100.00;150026.36;1703957;82;21044;-63
2022/11/14 08:17:45;;;;;;;17.42;9.78;;;;;;;9.54;100.00;150052.27;1709611;82;21072;-63
2022/11/14 08:20:31;;;;;;;20.72;9.73;;;;;;;9.64;100.00;150078.22;1704167;82;21152;-63
2022/11/14 08:23:16;;;;;;;;;;;;;;;9.69;100.00;150091.19;1684736;84;22243;-63
2022/11/14 08:26:03;;;;;;;17.00;8.05;;;;;;;9.75;99.78;150106.73;1693569;83;20922;-63
2022/11/14 08:28:53;;;;;;;;;;;;;;;9.81;99.38;150119.69;1717540;82;21091;-59
2022/11/14 08:31:39;;;;;;;18.17;7.78;;;;;;;9.84;98.53;150127.52;1710569;83;21128;-61
2022/11/14 08:34:24;;;;;;;;;;;;;;;9.84;98.20;150127.52;1691537;84;21071;-60
2022/11/14 08:37:10;;;;;;;16.07;7.00;;;;;;;9.89;97.75;150140.47;1687635;84;20234;-59
2022/11/14 08:39:55;;;;;;;13.75;7.20;;;;;;;9.93;97.63;150149.52;1706365;82;21062;-64
2022/11/14 08:42:41;;;;;;;11.97;6.45;;;;;;;9.91;97.97;150145.66;1676893;84;21118;-62
2022/11/14 08:45:26;;;;;;;;;;;;;;;9.86;98.02;150132.70;1685319;83;21600;-59
2022/11/14 08:48:11;;;;;;;11.50;5.83;;;;;;;9.83;98.34;150126.19;1697204;83;20209;-61
2022/11/14 08:50:56;;;;;;;;;;;;;;;9.83;98.62;150124.87;1710298;82;21090;-62
2022/11/14 08:53:42;;;;;;;24.82;6.30;;;;;;;9.80;99.00;150117.09;1713439;82;20200;-62
2022/11/14 08:56:27;;;;;;;15.85;5.75;;;;;;;9.83;99.09;150124.87;1693156;83;21536;-65
2022/11/14 08:59:12;;;;;;;;;;;;;;;9.86;98.89;150132.70;1696514;83;21303;-63
2022/11/14 09:01:58;;;;;;;27.20;7.87;;;;;;;9.88;98.94;150139.16;1678951;84;20478;-60
2022/11/14 09:04:43;;;;;;;14.43;6.28;;;;;;;9.86;98.40;150132.70;1661961;83;21063;-63
2022/11/14 09:07:29;;;;;;;17.73;6.50;;;;;;;9.84;98.67;150127.52;1700951;82;21015;-59
2022/11/14 09:10:14;;;;;;;22.20;6.15;;;;;;;9.82;98.42;150122.28;1681687;83;21143;-59
2022/11/14 09:13:00;;;;;;;12.30;5.85;;;;;;;9.85;98.77;150130.11;1697373;82;22889;-59
2022/11/14 09:15:47;;;;;;;12.73;6.25;;;;;;;9.93;98.95;150150.84;1675485;84;21002;-60
2022/11/14 09:18:33;;;;;;;16.32;6.28;;;;;;;9.98;98.47;150163.80;1695769;82;21516;-58
2022/11/14 09:21:18;;;;;;;11.43;6.40;;;;;;;10.01;98.41;150171.58;1715256;81;21046;-59
2022/11/14 09:24:03;;;;;;;18.95;7.15;;;;;;;10.07;97.98;150185.86;1707418;81;21027;-60
2022/11/14 09:26:51;;;;;;;14.25;6.87;;;;;;;10.13;97.76;150200.13;1680937;83;21147;-60
2022/11/14 09:29:36;;;;;;;16.42;6.62;;;;;;;10.16;97.28;150207.91;1707680;82;21243;-60
2022/11/14 09:32:22;;;;;;;29.32;7.53;;;;;;;10.19;97.37;150215.69;1702415;82;21388;-60
2022/11/14 09:35:08;;;;;;;12.70;6.80;;;;;;;10.22;96.66;150223.47;1708157;82;21065;-63
2022/11/14 09:38:04;;;;;;;;;;;;;;;10.20;96.92;150218.28;1688005;84;21219;-63
2022/11/14 09:41:25;;;;;;;11.48;7.00;;;;;;;10.24;96.86;150228.66;1706283;82;24687;-62
2022/11/14 09:44:22;;;;;;;11.03;6.83;;;;;;;10.29;96.87;150240.34;1705413;82;21054;-59
2022/11/14 09:47:20;;;;;;;12.88;7.00;;;;;;;10.34;96.35;150252.03;1692501;82;21065;-60
2022/11/14 09:50:27;;;;;;;10.68;6.92;;;;;;;10.32;96.29;150248.13;1701445;82;21128;-59
2022/11/14 09:53:24;;;;;;;11.45;6.35;;;;;;;10.31;96.43;150246.84;1703096;82;21546;-59
2022/11/14 09:56:12;;;;;;;10.90;6.70;;;;;;;10.32;96.45;150249.44;1703790;83;21139;-60
2022/11/14 09:58:58;;;;;;;9.75;7.22;;;;;;;10.32;96.37;150249.44;1702222;82;21009;-60
2022/11/14 10:02:06;;;;;;;10.13;7.17;;;;;;;10.24;96.33;150228.66;1704819;82;21044;-60
2022/11/14 10:05:22;;;;;;;12.15;7.83;;;;;;;10.17;96.62;150211.83;1607493;87;21128;-60
2022/11/14 10:08:34;;;;;;;8.48;6.30;;;;;;;10.06;96.96;150183.27;1700140;81;21540;-60
2022/11/14 10:11:37;;;;;;;13.95;7.28;;;;;;;10.00;97.75;150167.72;1702989;82;21059;-62
2022/11/14 10:14:46;;;;;;;14.20;7.90;;;;;;;9.98;97.64;150163.80;1703460;82;21070;-62
2022/11/14 10:18:16;;;;;;;21.42;8.90;;;;;;;9.96;98.03;150158.61;1702214;84;21055;-62
2022/11/14 10:21:44;;;;;;;11.45;7.05;;;;;;;9.95;98.26;150156.03;1700038;81;21020;-62
2022/11/14 10:24:44;;;;;;;13.38;7.03;;;;;;;9.90;98.56;150143.06;1696733;83;21063;-62
2022/11/14 10:27:44;;;;;;;19.10;7.25;;;;;;;9.86;98.71;150132.70;1699509;83;21228;-63
2022/11/14 10:30:40;;;;;;;12.68;6.95;;;;;;;9.89;98.79;150140.47;1711882;82;21067;-62
2022/11/14 10:33:57;;;;;;;15.58;7.30;;;;;;;9.91;98.97;150144.34;1709445;82;21105;-63
2022/11/14 10:37:15;;;;;;;14.80;6.87;;;;;;;9.90;98.99;150143.06;1701259;83;21829;-62
2022/11/14 10:40:23;;;;;;;10.88;6.55;;;;;;;9.86;99.28;150132.70;1703796;82;21062;-62
2022/11/14 10:43:27;;;;;;;12.90;6.83;;;;;;;9.85;99.49;150130.11;1681377;83;21666;-62
2022/11/14 10:46:32;;;;;;;20.30;9.18;;;;;;;9.83;99.31;150124.87;1689767;82;21078;-63
2022/11/14 10:49:23;;;;;;;11.78;6.92;;;;;;;9.79;99.40;150114.50;1705430;83;21073;-62
2022/11/14 10:52:17;;;;;;;17.30;7.62;;;;;;;9.82;99.78;150122.28;1705885;83;21062;-63
2022/11/14 10:55:17;;;;;;;14.40;6.83;;;;;;;9.82;99.82;150123.61;1704781;82;21492;-62
2022/11/14 10:58:09;;;;;;;12.43;6.60;;;;;;;9.83;100.00;150124.87;1701597;83;20973;-59
2022/11/14 11:00:53;;;;;;;12.90;7.12;;;;;;;9.81;100.00;150119.69;1705497;82;21609;-60
2022/11/14 11:03:42;;;;;;;14.73;6.50;;;;;;;9.79;100.00;150114.50;1703696;83;21556;-61
2022/11/14 11:06:27;;;;;;;18.35;7.65;;;;;;;9.77;100.00;150110.64;1706061;83;21026;-60
2022/11/14 11:12:24;;;;;;;12.78;6.85;;;;;;;9.80;99.97;150117.09;1702445;82;21500;-59
2022/11/14 11:15:32;;;;;;;9.78;5.80;;;;;;;9.83;99.20;150124.87;1700471;82;21329;-60
2022/11/14 11:18:29;;;;;;;;;;;;;;;9.84;98.51;150127.52;1699608;82;22266;-60
2022/11/14 11:21:19;;;;;;;21.05;6.80;;;;;;;9.85;98.48;150130.11;1702797;82;20412;-59
2022/11/14 11:24:05;;;;;;;18.17;6.72;;;;;;;9.87;98.46;150135.28;1704167;82;21151;-59
2022/11/14 11:26:52;;;;;;;15.08;5.62;;;;;;;9.88;98.41;150137.88;1703685;82;21468;-59
2022/11/14 11:29:39;;;;;;;12.15;6.87;;;;;;;9.92;98.27;150146.92;1670573;82;20999;-60
2022/11/14 11:32:25;;;;;;;11.93;6.25;;;;;;;9.95;97.75;150154.75;1711155;82;21082;-60
2022/11/14 11:35:14;;;;;;;15.93;6.47;;;;;;;9.98;96.89;150163.80;1704810;82;21020;-60
2022/11/14 11:38:01;;;;;;;20.62;6.92;;;;;;;9.97;96.64;150159.94;1695786;82;21092;-60
2022/11/14 11:40:51;;;;;;;15.98;6.40;;;;;;;10.00;97.00;150167.72;1721400;82;21124;-60
2022/11/14 11:43:46;;;;;;;25.77;6.53;;;;;;;10.06;96.36;150181.94;1709115;82;21050;-59
2022/11/14 11:46:53;;;;;;;14.68;6.75;;;;;;;10.10;95.93;150192.36;1710634;81;21000;-59
2022/11/14 11:49:45;;;;;;;10.50;6.37;;;;;;;10.14;95.71;150202.73;1724259;82;21047;-59
2022/11/14 11:52:42;;;;;;;12.30;6.78;;;;;;;10.18;96.04;150213.09;1707366;82;21584;-61
2022/11/14 11:55:41;;;;;;;12.88;6.15;;;;;;;10.23;96.37;150226.06;1677519;84;21239;-61
2022/11/14 11:58:46;;;;;;;11.70;6.30;;;;;;;10.31;96.66;150246.84;1703006;82;21102;-59
2022/11/14 12:01:32;;;;;;;14.55;6.92;;;;;;;10.38;96.78;150263.69;1712814;82;21087;-60
2022/11/14 12:04:17;;;;;;;15.60;7.95;;;;;;;10.46;96.83;150283.19;1707389;82;21096;-59
2022/11/14 12:07:14;;;;;;;20.57;8.00;;;;;;;10.52;96.66;150298.80;1708878;82;21058;-59
2022/11/14 12:10:28;;;;;;;;;;;;;;;;;;;;;
2022/11/14 12:13:15;;;;;;;22.55;6.70;;;;;;;10.56;95.57;150309.17;1701968;82;21118;-59
2022/11/14 12:16:43;;;;;;;17.85;7.33;;;;;;;10.58;95.71;150314.36;1711726;82;21092;-64
2022/11/14 12:19:56;;;;;;;22.22;7.12;;;;;;;10.63;95.90;150324.73;1717878;82;21124;-65
2022/11/14 12:23:19;;;;;;;19.92;7.58;;;;;;;10.62;96.37;150323.47;1707471;82;21517;-63
2022/11/14 12:26:49;;;;;;;22.45;6.92;;;;;;;10.65;96.49;150329.92;1712675;81;21126;-62
2022/11/14 12:30:03;;;;;;;13.10;7.20;;;;;;;10.63;96.33;150326.05;1718354;82;21031;-62
2022/11/14 12:32:56;;;;;;;15.53;6.92;;;;;;;10.59;96.26;150316.95;1707133;82;21071;-60
2022/11/14 12:35:57;;;;;;;14.07;7.05;;;;;;;10.63;96.56;150324.73;1703747;82;21040;-63
2022/11/14 12:38:47;;;;;;;10.82;6.80;;;;;;;10.65;96.60;150331.23;1711548;82;20984;-60
2022/11/14 12:41:34;;;;;;;15.65;7.10;;;;;;;10.68;96.30;150337.70;1708660;81;21144;-60
2022/11/14 12:44:33;;;;;;;16.85;6.83;;;;;;;10.72;96.29;150348.06;1709869;82;21129;-61
2022/11/14 12:47:24;;;;;;;12.80;6.83;;;;;;;10.77;96.23;150361.09;1681499;84;21063;-61
2022/11/14 12:50:30;;;;;;;13.08;6.25;;;;;;;10.83;96.06;150376.66;1716912;82;21112;-62
2022/11/14 12:53:36;;;;;;;16.15;6.83;;;;;;;10.85;95.61;150381.84;1708708;83;21108;-62
2022/11/14 12:56:36;;;;;;;11.88;6.75;;;;;;;10.85;94.74;150381.84;1685958;83;21605;-63
2022/11/14 12:59:39;;;;;;;11.12;6.65;;;;;;;10.81;95.05;150371.47;1684510;83;21103;-64
2022/11/14 13:03:00;;;;;;;12.80;6.80;;;;;;;10.81;94.98;150370.14;1677770;84;21098;-61
2022/11/14 13:05:58;;;;;;;11.57;6.37;;;;;;;10.75;94.81;150355.91;1707855;83;21406;-63
2022/11/14 13:09:04;;;;;;;11.40;6.78;;;;;;;10.71;95.30;150345.48;1681350;83;21106;-63
2022/11/14 13:21:45;;;;;;;13.05;6.25;;;;;;;10.65;96.36;150331.23;1685446;83;20947;-63
2022/11/14 13:25:03;;;;;;;14.47;6.17;;;;;;;10.62;96.66;150322.14;1685554;83;21146;-63